Cut Knife, Canada
Current Conditions -  °F | °C
As of 1:00 PM on Saturday 25 Oct 2014 (Local Time) from CYQW Reporting Station
Clear Clear  
Wind Chill: 43°   Ceiling: Unl
Heat Index: 43°   Visibility: 9mi
Dew Point: 30°   Wind: 3mph
Humidity: 61%   Direction: NA
Pressure: 30.03"   Gusts: NA
Location:  52.74°N, 109.02°W
Report Text: CYQW 251900Z AUTO VRB03KT 9SM CLR 06/M01 A3003 RMK SLP191
Loading
Personal Weather Stations






























Interactive Weather Map
Tropical Storm Tracking
New forecast layout! Learn more

10-Day Weather Forecast

Advertisements
Track Severe Weather on mobile